sensor_id;sensor_type;location;lat;lon;timestamp;P1;durP1;ratioP1;P2;durP2;ratioP2
48911;SDS011;34722;52.108;5.044;2023-06-24T02:25:49;26.15;;;16.17;;
48911;SDS011;34722;52.108;5.044;2023-06-24T02:28:19;22.80;;;14.85;;
48911;SDS011;34722;52.108;5.044;2023-06-24T02:30:58;23.08;;;14.68;;
48911;SDS011;34722;52.108;5.044;2023-06-24T02:33:26;24.13;;;16.17;;
48911;SDS011;34722;52.108;5.044;2023-06-24T02:36:08;25.17;;;15.63;;
48911;SDS011;34722;52.108;5.044;2023-06-24T02:41:27;23.92;;;15.52;;
48911;SDS011;34722;52.108;5.044;2023-06-24T02:43:57;25.50;;;16.25;;
48911;SDS011;34722;52.108;5.044;2023-06-24T02:46:48;21.27;;;15.13;;
48911;SDS011;34722;52.108;5.044;2023-06-24T02:49:21;23.17;;;14.95;;
48911;SDS011;34722;52.108;5.044;2023-06-24T02:59:01;21.77;;;15.05;;
48911;SDS011;34722;52.108;5.044;2023-06-24T03:02:02;22.83;;;13.10;;
48911;SDS011;34722;52.108;5.044;2023-06-24T03:05:03;21.10;;;13.50;;
48911;SDS011;34722;52.108;5.044;2023-06-24T03:11:37;20.98;;;13.35;;
48911;SDS011;34722;52.108;5.044;2023-06-24T03:18:33;22.95;;;13.65;;
48911;SDS011;34722;52.108;5.044;2023-06-24T03:21:39;23.27;;;12.68;;
48911;SDS011;34722;52.108;5.044;2023-06-24T03:24:45;21.25;;;12.98;;
48911;SDS011;34722;52.108;5.044;2023-06-24T03:27:47;22.05;;;12.15;;
48911;SDS011;34722;52.108;5.044;2023-06-24T03:30:36;18.38;;;12.02;;
48911;SDS011;34722;52.108;5.044;2023-06-24T03:33:52;19.40;;;11.55;;
48911;SDS011;34722;52.108;5.044;2023-06-24T04:16:29;13.05;;;6.93;;
48911;SDS011;34722;52.108;5.044;2023-06-24T04:26:02;10.15;;;6.45;;
48911;SDS011;34722;52.108;5.044;2023-06-24T04:28:34;10.65;;;6.82;;
48911;SDS011;34722;52.108;5.044;2023-06-24T05:22:38;10.57;;;7.25;;
48911;SDS011;34722;52.108;5.044;2023-06-24T05:25:04;14.35;;;8.32;;
48911;SDS011;34722;52.108;5.044;2023-06-24T05:27:33;12.20;;;6.78;;
48911;SDS011;34722;52.108;5.044;2023-06-24T05:29:59;13.45;;;7.47;;
48911;SDS011;34722;52.108;5.044;2023-06-24T05:32:25;11.23;;;6.55;;
48911;SDS011;34722;52.108;5.044;2023-06-24T05:34:50;14.88;;;7.88;;
48911;SDS011;34722;52.108;5.044;2023-06-24T05:37:16;11.60;;;6.78;;
48911;SDS011;34722;52.108;5.044;2023-06-24T05:39:42;9.98;;;7.00;;
48911;SDS011;34722;52.108;5.044;2023-06-24T05:42:08;11.25;;;6.45;;
48911;SDS011;34722;52.108;5.044;2023-06-24T05:45:06;15.02;;;6.95;;
48911;SDS011;34722;52.108;5.044;2023-06-24T05:47:32;12.90;;;7.60;;
48911;SDS011;34722;52.108;5.044;2023-06-24T05:50:07;14.52;;;6.97;;
48911;SDS011;34722;52.108;5.044;2023-06-24T05:52:34;13.95;;;6.30;;
48911;SDS011;34722;52.108;5.044;2023-06-24T05:55:02;8.43;;;6.28;;
48911;SDS011;34722;52.108;5.044;2023-06-24T05:57:41;9.70;;;6.20;;
48911;SDS011;34722;52.108;5.044;2023-06-24T06:00:10;8.27;;;6.80;;
48911;SDS011;34722;52.108;5.044;2023-06-24T06:02:36;9.13;;;6.75;;
48911;SDS011;34722;52.108;5.044;2023-06-24T06:05:13;12.30;;;7.78;;
48911;SDS011;34722;52.108;5.044;2023-06-24T06:10:31;7.18;;;6.10;;
48911;SDS011;34722;52.108;5.044;2023-06-24T06:13:03;12.73;;;7.35;;
48911;SDS011;34722;52.108;5.044;2023-06-24T06:22:14;8.48;;;7.03;;
48911;SDS011;34722;52.108;5.044;2023-06-24T06:24:40;7.95;;;7.15;;
48911;SDS011;34722;52.108;5.044;2023-06-24T06:27:10;10.38;;;7.65;;
48911;SDS011;34722;52.108;5.044;2023-06-24T06:29:41;8.38;;;6.68;;
48911;SDS011;34722;52.108;5.044;2023-06-24T06:32:07;8.05;;;7.03;;
48911;SDS011;34722;52.108;5.044;2023-06-24T06:34:34;9.10;;;7.43;;
48911;SDS011;34722;52.108;5.044;2023-06-24T06:37:01;8.48;;;6.85;;
48911;SDS011;34722;52.108;5.044;2023-06-24T06:39:30;8.43;;;7.55;;
48911;SDS011;34722;52.108;5.044;2023-06-24T06:41:56;11.13;;;7.13;;
48911;SDS011;34722;52.108;5.044;2023-06-24T06:44:27;7.80;;;7.00;;
48911;SDS011;34722;52.108;5.044;2023-06-24T06:46:53;9.52;;;7.70;;
48911;SDS011;34722;52.108;5.044;2023-06-24T06:49:19;9.90;;;6.82;;
48911;SDS011;34722;52.108;5.044;2023-06-24T06:51:45;8.40;;;6.95;;
48911;SDS011;34722;52.108;5.044;2023-06-24T06:54:11;7.80;;;7.03;;
48911;SDS011;34722;52.108;5.044;2023-06-24T06:56:37;8.35;;;7.55;;
48911;SDS011;34722;52.108;5.044;2023-06-24T06:59:04;10.27;;;6.95;;
48911;SDS011;34722;52.108;5.044;2023-06-24T07:01:31;8.40;;;6.88;;
48911;SDS011;34722;52.108;5.044;2023-06-24T07:04:03;8.23;;;7.25;;
48911;SDS011;34722;52.108;5.044;2023-06-24T07:07:05;8.38;;;6.93;;
48911;SDS011;34722;52.108;5.044;2023-06-24T07:09:39;8.00;;;6.05;;
48911;SDS011;34722;52.108;5.044;2023-06-24T07:12:06;8.82;;;7.10;;
48911;SDS011;34722;52.108;5.044;2023-06-24T07:14:32;8.38;;;6.80;;
48911;SDS011;34722;52.108;5.044;2023-06-24T07:17:02;8.98;;;6.95;;
48911;SDS011;34722;52.108;5.044;2023-06-24T07:19:30;8.80;;;7.00;;
48911;SDS011;34722;52.108;5.044;2023-06-24T07:21:56;8.80;;;7.78;;
48911;SDS011;34722;52.108;5.044;2023-06-24T07:24:21;9.95;;;7.00;;
48911;SDS011;34722;52.108;5.044;2023-06-24T07:26:50;8.60;;;7.18;;
48911;SDS011;34722;52.108;5.044;2023-06-24T07:29:15;7.82;;;7.13;;
48911;SDS011;34722;52.108;5.044;2023-06-24T07:31:41;8.25;;;7.35;;
48911;SDS011;34722;52.108;5.044;2023-06-24T07:34:07;7.55;;;6.75;;
48911;SDS011;34722;52.108;5.044;2023-06-24T07:36:33;6.97;;;6.28;;
48911;SDS011;34722;52.108;5.044;2023-06-24T07:38:58;8.27;;;6.53;;
48911;SDS011;34722;52.108;5.044;2023-06-24T07:41:27;8.02;;;7.32;;
48911;SDS011;34722;52.108;5.044;2023-06-24T07:43:56;10.85;;;6.95;;
48911;SDS011;34722;52.108;5.044;2023-06-24T07:46:22;7.72;;;6.82;;
48911;SDS011;34722;52.108;5.044;2023-06-24T07:48:48;8.27;;;6.85;;
48911;SDS011;34722;52.108;5.044;2023-06-24T07:51:19;11.63;;;7.97;;
48911;SDS011;34722;52.108;5.044;2023-06-24T07:57:32;7.93;;;7.13;;
48911;SDS011;34722;52.108;5.044;2023-06-24T08:00:00;7.38;;;6.68;;
48911;SDS011;34722;52.108;5.044;2023-06-24T08:02:27;8.13;;;7.18;;
48911;SDS011;34722;52.108;5.044;2023-06-24T08:05:05;7.50;;;6.80;;
48911;SDS011;34722;52.108;5.044;2023-06-24T08:07:31;8.13;;;6.65;;
48911;SDS011;34722;52.108;5.044;2023-06-24T08:10:00;10.27;;;7.07;;
48911;SDS011;34722;52.108;5.044;2023-06-24T08:12:27;8.40;;;6.93;;
48911;SDS011;34722;52.108;5.044;2023-06-24T08:14:52;7.25;;;6.55;;
48911;SDS011;34722;52.108;5.044;2023-06-24T08:17:18;8.02;;;7.20;;
48911;SDS011;34722;52.108;5.044;2023-06-24T08:19:43;7.72;;;6.97;;
48911;SDS011;34722;52.108;5.044;2023-06-24T08:22:09;8.10;;;7.35;;
48911;SDS011;34722;52.108;5.044;2023-06-24T08:24:35;11.95;;;6.88;;
48911;SDS011;34722;52.108;5.044;2023-06-24T08:27:44;8.40;;;6.82;;
48911;SDS011;34722;52.108;5.044;2023-06-24T08:30:11;9.90;;;7.22;;
48911;SDS011;34722;52.108;5.044;2023-06-24T09:01:55;9.90;;;7.45;;
48911;SDS011;34722;52.108;5.044;2023-06-24T09:31:07;10.68;;;7.80;;
48911;SDS011;34722;52.108;5.044;2023-06-24T09:52:56;11.82;;;10.63;;
48911;SDS011;34722;52.108;5.044;2023-06-24T09:55:49;11.20;;;8.65;;
48911;SDS011;34722;52.108;5.044;2023-06-24T09:58:30;9.85;;;8.88;;
48911;SDS011;34722;52.108;5.044;2023-06-24T10:01:23;12.23;;;8.85;;
48911;SDS011;34722;52.108;5.044;2023-06-24T10:04:32;10.33;;;8.50;;
48911;SDS011;34722;52.108;5.044;2023-06-24T10:06:55;11.20;;;9.95;;
48911;SDS011;34722;52.108;5.044;2023-06-24T10:12:58;12.38;;;9.05;;
48911;SDS011;34722;52.108;5.044;2023-06-24T10:20:52;10.20;;;9.20;;
48911;SDS011;34722;52.108;5.044;2023-06-24T10:26:35;13.00;;;9.82;;
48911;SDS011;34722;52.108;5.044;2023-06-24T10:32:50;10.73;;;8.52;;
48911;SDS011;34722;52.108;5.044;2023-06-24T10:38:56;11.95;;;9.43;;
48911;SDS011;34722;52.108;5.044;2023-06-24T11:00:39;7.97;;;7.15;;
48911;SDS011;34722;52.108;5.044;2023-06-24T11:03:12;10.10;;;6.40;;
48911;SDS011;34722;52.108;5.044;2023-06-24T11:05:55;6.70;;;6.10;;
48911;SDS011;34722;52.108;5.044;2023-06-24T11:08:42;9.05;;;7.82;;
48911;SDS011;34722;52.108;5.044;2023-06-24T11:15:22;9.30;;;7.18;;
48911;SDS011;34722;52.108;5.044;2023-06-24T11:18:19;9.55;;;8.57;;
48911;SDS011;34722;52.108;5.044;2023-06-24T11:20:54;10.77;;;8.40;;
48911;SDS011;34722;52.108;5.044;2023-06-24T11:23:41;10.55;;;9.52;;
48911;SDS011;34722;52.108;5.044;2023-06-24T11:26:23;8.13;;;7.32;;
48911;SDS011;34722;52.108;5.044;2023-06-24T11:29:12;8.55;;;7.60;;
48911;SDS011;34722;52.108;5.044;2023-06-24T11:31:45;8.48;;;7.65;;
48911;SDS011;34722;52.108;5.044;2023-06-24T11:34:43;9.75;;;8.30;;
48911;SDS011;34722;52.108;5.044;2023-06-24T11:40:48;7.68;;;6.97;;
48911;SDS011;34722;52.108;5.044;2023-06-24T12:40:18;10.05;;;7.55;;
48911;SDS011;34722;52.108;5.044;2023-06-24T12:43:15;10.55;;;6.57;;
48911;SDS011;34722;52.108;5.044;2023-06-24T12:46:02;8.63;;;6.03;;
48911;SDS011;34722;52.108;5.044;2023-06-24T12:48:29;8.25;;;5.95;;
48911;SDS011;34722;52.108;5.044;2023-06-24T12:51:24;11.30;;;7.18;;
48911;SDS011;34722;52.108;5.044;2023-06-24T12:53:53;9.75;;;7.00;;
48911;SDS011;34722;52.108;5.044;2023-06-24T12:56:20;9.27;;;6.88;;
48911;SDS011;34722;52.108;5.044;2023-06-24T12:58:49;6.95;;;5.82;;
48911;SDS011;34722;52.108;5.044;2023-06-24T13:01:24;10.35;;;7.32;;
48911;SDS011;34722;52.108;5.044;2023-06-24T13:07:12;9.95;;;6.93;;
48911;SDS011;34722;52.108;5.044;2023-06-24T13:09:49;10.90;;;6.80;;
48911;SDS011;34722;52.108;5.044;2023-06-24T13:12:16;7.72;;;5.28;;
48911;SDS011;34722;52.108;5.044;2023-06-24T13:15:14;7.30;;;5.55;;
48911;SDS011;34722;52.108;5.044;2023-06-24T13:17:45;8.52;;;6.10;;
48911;SDS011;34722;52.108;5.044;2023-06-24T13:20:11;9.82;;;6.45;;
48911;SDS011;34722;52.108;5.044;2023-06-24T13:22:43;9.65;;;6.55;;
48911;SDS011;34722;52.108;5.044;2023-06-24T13:25:20;10.98;;;6.20;;
48911;SDS011;34722;52.108;5.044;2023-06-24T13:28:02;9.05;;;6.40;;
48911;SDS011;34722;52.108;5.044;2023-06-24T13:31:18;7.93;;;6.25;;
48911;SDS011;34722;52.108;5.044;2023-06-24T13:33:47;6.35;;;5.55;;
48911;SDS011;34722;52.108;5.044;2023-06-24T13:36:26;6.72;;;6.07;;
48911;SDS011;34722;52.108;5.044;2023-06-24T13:39:09;7.45;;;5.78;;
48911;SDS011;34722;52.108;5.044;2023-06-24T13:41:42;6.93;;;5.63;;
48911;SDS011;34722;52.108;5.044;2023-06-24T13:44:10;7.70;;;5.07;;
48911;SDS011;34722;52.108;5.044;2023-06-24T13:46:37;7.70;;;6.35;;
48911;SDS011;34722;52.108;5.044;2023-06-24T13:49:03;6.00;;;5.45;;
48911;SDS011;34722;52.108;5.044;2023-06-24T13:51:29;6.18;;;5.20;;
48911;SDS011;34722;52.108;5.044;2023-06-24T13:53:55;6.88;;;5.30;;
48911;SDS011;34722;52.108;5.044;2023-06-24T13:56:21;7.03;;;5.53;;
48911;SDS011;34722;52.108;5.044;2023-06-24T13:58:51;9.02;;;6.15;;
48911;SDS011;34722;52.108;5.044;2023-06-24T14:01:17;6.55;;;5.35;;
48911;SDS011;34722;52.108;5.044;2023-06-24T14:03:43;9.25;;;6.20;;
48911;SDS011;34722;52.108;5.044;2023-06-24T14:06:10;6.50;;;5.40;;
48911;SDS011;34722;52.108;5.044;2023-06-24T14:08:35;6.40;;;4.88;;
48911;SDS011;34722;52.108;5.044;2023-06-24T14:11:01;6.63;;;5.30;;
48911;SDS011;34722;52.108;5.044;2023-06-24T14:13:28;8.07;;;5.72;;
48911;SDS011;34722;52.108;5.044;2023-06-24T14:15:54;8.30;;;5.00;;
48911;SDS011;34722;52.108;5.044;2023-06-24T14:18:20;8.07;;;5.07;;
48911;SDS011;34722;52.108;5.044;2023-06-24T14:20:46;6.40;;;4.63;;
48911;SDS011;34722;52.108;5.044;2023-06-24T14:23:13;5.50;;;4.80;;
48911;SDS011;34722;52.108;5.044;2023-06-24T14:26:06;5.50;;;4.65;;
48911;SDS011;34722;52.108;5.044;2023-06-24T14:31:27;5.60;;;5.00;;
48911;SDS011;34722;52.108;5.044;2023-06-24T14:33:53;5.55;;;4.80;;
48911;SDS011;34722;52.108;5.044;2023-06-24T14:36:20;6.45;;;5.10;;
48911;SDS011;34722;52.108;5.044;2023-06-24T14:38:45;5.95;;;4.30;;
48911;SDS011;34722;52.108;5.044;2023-06-24T14:41:11;8.23;;;4.07;;
48911;SDS011;34722;52.108;5.044;2023-06-24T14:43:37;5.63;;;4.80;;
48911;SDS011;34722;52.108;5.044;2023-06-24T14:46:03;10.85;;;7.22;;
48911;SDS011;34722;52.108;5.044;2023-06-24T14:48:29;8.63;;;5.10;;
48911;SDS011;34722;52.108;5.044;2023-06-24T14:50:54;6.53;;;5.53;;
48911;SDS011;34722;52.108;5.044;2023-06-24T14:53:20;12.57;;;8.95;;
48911;SDS011;34722;52.108;5.044;2023-06-24T14:55:46;13.52;;;9.15;;
48911;SDS011;34722;52.108;5.044;2023-06-24T14:58:12;11.55;;;8.50;;
48911;SDS011;34722;52.108;5.044;2023-06-24T15:00:38;13.60;;;10.00;;
48911;SDS011;34722;52.108;5.044;2023-06-24T15:03:04;11.95;;;8.98;;
48911;SDS011;34722;52.108;5.044;2023-06-24T15:05:29;14.23;;;8.93;;
48911;SDS011;34722;52.108;5.044;2023-06-24T15:07:55;13.32;;;8.60;;
48911;SDS011;34722;52.108;5.044;2023-06-24T15:10:24;15.73;;;9.48;;
48911;SDS011;34722;52.108;5.044;2023-06-24T15:12:49;12.50;;;8.48;;
48911;SDS011;34722;52.108;5.044;2023-06-24T15:15:15;14.27;;;9.65;;
48911;SDS011;34722;52.108;5.044;2023-06-24T15:17:41;11.50;;;9.00;;
48911;SDS011;34722;52.108;5.044;2023-06-24T15:23:07;11.70;;;8.35;;
48911;SDS011;34722;52.108;5.044;2023-06-24T17:10:44;13.10;;;7.90;;
48911;SDS011;34722;52.108;5.044;2023-06-24T17:13:21;13.40;;;8.57;;
48911;SDS011;34722;52.108;5.044;2023-06-24T17:15:47;13.60;;;9.20;;
48911;SDS011;34722;52.108;5.044;2023-06-24T17:18:19;14.65;;;9.18;;
48911;SDS011;34722;52.108;5.044;2023-06-24T17:20:46;11.13;;;8.65;;
48911;SDS011;34722;52.108;5.044;2023-06-24T17:23:15;14.02;;;8.57;;
48911;SDS011;34722;52.108;5.044;2023-06-24T17:25:43;13.77;;;9.40;;
48911;SDS011;34722;52.108;5.044;2023-06-24T17:28:08;13.82;;;8.48;;
48911;SDS011;34722;52.108;5.044;2023-06-24T17:30:34;12.05;;;8.25;;
48911;SDS011;34722;52.108;5.044;2023-06-24T17:33:00;12.95;;;8.30;;
48911;SDS011;34722;52.108;5.044;2023-06-24T17:35:26;13.55;;;8.75;;
48911;SDS011;34722;52.108;5.044;2023-06-24T17:40:33;12.05;;;8.30;;
48911;SDS011;34722;52.108;5.044;2023-06-24T17:43:02;12.45;;;8.50;;
48911;SDS011;34722;52.108;5.044;2023-06-24T17:45:33;14.43;;;8.13;;
48911;SDS011;34722;52.108;5.044;2023-06-24T17:47:59;13.30;;;7.97;;
48911;SDS011;34722;52.108;5.044;2023-06-24T17:50:54;15.82;;;8.20;;
48911;SDS011;34722;52.108;5.044;2023-06-24T17:53:20;13.00;;;8.30;;
48911;SDS011;34722;52.108;5.044;2023-06-24T17:55:53;13.27;;;8.60;;
48911;SDS011;34722;52.108;5.044;2023-06-24T17:58:20;15.07;;;9.25;;
48911;SDS011;34722;52.108;5.044;2023-06-24T18:00:48;13.70;;;8.40;;
48911;SDS011;34722;52.108;5.044;2023-06-24T18:03:17;8.55;;;7.05;;
48911;SDS011;34722;52.108;5.044;2023-06-24T18:05:42;12.38;;;7.15;;
48911;SDS011;34722;52.108;5.044;2023-06-24T18:08:11;10.23;;;7.00;;
48911;SDS011;34722;52.108;5.044;2023-06-24T18:10:37;9.77;;;7.38;;
48911;SDS011;34722;52.108;5.044;2023-06-24T18:13:11;10.88;;;7.80;;
48911;SDS011;34722;52.108;5.044;2023-06-24T18:15:37;12.07;;;8.20;;
48911;SDS011;34722;52.108;5.044;2023-06-24T18:18:10;13.75;;;7.57;;
48911;SDS011;34722;52.108;5.044;2023-06-24T18:20:42;14.40;;;6.95;;
48911;SDS011;34722;52.108;5.044;2023-06-24T18:23:08;9.82;;;7.25;;
48911;SDS011;34722;52.108;5.044;2023-06-24T18:25:34;11.00;;;6.90;;
48911;SDS011;34722;52.108;5.044;2023-06-24T18:27:59;9.52;;;6.57;;
48911;SDS011;34722;52.108;5.044;2023-06-24T18:30:28;8.70;;;6.78;;
48911;SDS011;34722;52.108;5.044;2023-06-24T18:32:54;9.80;;;6.80;;
48911;SDS011;34722;52.108;5.044;2023-06-24T18:35:19;8.32;;;6.55;;
48911;SDS011;34722;52.108;5.044;2023-06-24T18:37:45;7.65;;;6.68;;
48911;SDS011;34722;52.108;5.044;2023-06-24T18:40:13;10.02;;;7.15;;
48911;SDS011;34722;52.108;5.044;2023-06-24T18:42:39;10.57;;;6.65;;
48911;SDS011;34722;52.108;5.044;2023-06-24T18:45:05;9.88;;;6.60;;
48911;SDS011;34722;52.108;5.044;2023-06-24T18:47:34;14.75;;;8.48;;
48911;SDS011;34722;52.108;5.044;2023-06-24T18:50:00;8.45;;;6.53;;
48911;SDS011;34722;52.108;5.044;2023-06-24T18:52:26;11.80;;;6.88;;
48911;SDS011;34722;52.108;5.044;2023-06-24T18:54:52;8.70;;;7.22;;
48911;SDS011;34722;52.108;5.044;2023-06-24T18:57:17;10.38;;;7.13;;
48911;SDS011;34722;52.108;5.044;2023-06-24T18:59:43;11.48;;;7.50;;
48911;SDS011;34722;52.108;5.044;2023-06-24T19:02:09;10.20;;;6.40;;
48911;SDS011;34722;52.108;5.044;2023-06-24T19:04:35;8.45;;;6.63;;
48911;SDS011;34722;52.108;5.044;2023-06-24T19:07:01;8.32;;;6.50;;
48911;SDS011;34722;52.108;5.044;2023-06-24T19:09:27;9.00;;;6.57;;
48911;SDS011;34722;52.108;5.044;2023-06-24T19:11:52;8.60;;;6.28;;
48911;SDS011;34722;52.108;5.044;2023-06-24T19:14:21;7.97;;;6.60;;
48911;SDS011;34722;52.108;5.044;2023-06-24T19:16:47;9.57;;;6.45;;
48911;SDS011;34722;52.108;5.044;2023-06-24T19:19:12;8.50;;;6.63;;
48911;SDS011;34722;52.108;5.044;2023-06-24T19:21:44;8.90;;;7.30;;
48911;SDS011;34722;52.108;5.044;2023-06-24T19:24:34;10.23;;;6.80;;
48911;SDS011;34722;52.108;5.044;2023-06-24T19:27:23;13.38;;;7.30;;
48911;SDS011;34722;52.108;5.044;2023-06-24T19:29:49;10.10;;;7.60;;
48911;SDS011;34722;52.108;5.044;2023-06-24T19:32:23;11.52;;;6.50;;
48911;SDS011;34722;52.108;5.044;2023-06-24T19:34:49;10.25;;;6.93;;
48911;SDS011;34722;52.108;5.044;2023-06-24T19:37:15;11.18;;;7.25;;
48911;SDS011;34722;52.108;5.044;2023-06-24T19:39:44;11.75;;;8.23;;
48911;SDS011;34722;52.108;5.044;2023-06-24T19:42:09;13.32;;;8.57;;
48911;SDS011;34722;52.108;5.044;2023-06-24T19:44:35;14.13;;;8.73;;
48911;SDS011;34722;52.108;5.044;2023-06-24T19:47:01;13.25;;;8.35;;
48911;SDS011;34722;52.108;5.044;2023-06-24T19:49:27;12.35;;;8.57;;
48911;SDS011;34722;52.108;5.044;2023-06-24T19:51:53;12.00;;;8.25;;
48911;SDS011;34722;52.108;5.044;2023-06-24T19:54:19;11.35;;;8.10;;
48911;SDS011;34722;52.108;5.044;2023-06-24T19:56:44;11.55;;;7.57;;
48911;SDS011;34722;52.108;5.044;2023-06-24T19:59:10;11.68;;;7.50;;
48911;SDS011;34722;52.108;5.044;2023-06-24T20:01:35;10.38;;;6.78;;
48911;SDS011;34722;52.108;5.044;2023-06-24T20:04:01;10.52;;;7.50;;
48911;SDS011;34722;52.108;5.044;2023-06-24T20:06:27;13.57;;;6.80;;
48911;SDS011;34722;52.108;5.044;2023-06-24T20:08:52;11.13;;;7.35;;
48911;SDS011;34722;52.108;5.044;2023-06-24T20:11:18;10.00;;;8.18;;
48911;SDS011;34722;52.108;5.044;2023-06-24T20:13:44;15.27;;;9.63;;
48911;SDS011;34722;52.108;5.044;2023-06-24T20:16:11;13.93;;;8.23;;
48911;SDS011;34722;52.108;5.044;2023-06-24T20:18:37;10.25;;;7.28;;
48911;SDS011;34722;52.108;5.044;2023-06-24T20:21:02;10.98;;;7.28;;
48911;SDS011;34722;52.108;5.044;2023-06-24T20:23:31;11.43;;;7.10;;
48911;SDS011;34722;52.108;5.044;2023-06-24T20:25:56;10.90;;;7.07;;
48911;SDS011;34722;52.108;5.044;2023-06-24T20:28:29;10.20;;;7.63;;
48911;SDS011;34722;52.108;5.044;2023-06-24T20:30:58;10.80;;;7.47;;
48911;SDS011;34722;52.108;5.044;2023-06-24T20:33:35;12.02;;;7.78;;
48911;SDS011;34722;52.108;5.044;2023-06-24T20:36:01;8.43;;;6.70;;
48911;SDS011;34722;52.108;5.044;2023-06-24T20:38:53;14.20;;;7.43;;
48911;SDS011;34722;52.108;5.044;2023-06-24T20:41:48;10.05;;;7.60;;
48911;SDS011;34722;52.108;5.044;2023-06-24T20:44:28;9.85;;;7.70;;
48911;SDS011;34722;52.108;5.044;2023-06-24T20:47:02;16.30;;;10.95;;
48911;SDS011;34722;52.108;5.044;2023-06-24T20:50:04;13.00;;;9.65;;
48911;SDS011;34722;52.108;5.044;2023-06-24T20:52:36;18.80;;;10.67;;
48911;SDS011;34722;52.108;5.044;2023-06-24T20:55:03;16.52;;;10.07;;
48911;SDS011;34722;52.108;5.044;2023-06-24T21:00:39;10.77;;;8.38;;
48911;SDS011;34722;52.108;5.044;2023-06-24T21:03:06;10.32;;;8.05;;
48911;SDS011;34722;52.108;5.044;2023-06-24T21:08:28;10.95;;;7.50;;
48911;SDS011;34722;52.108;5.044;2023-06-24T21:10:54;11.60;;;8.05;;
48911;SDS011;34722;52.108;5.044;2023-06-24T21:13:21;13.35;;;9.57;;
48911;SDS011;34722;52.108;5.044;2023-06-24T21:15:47;15.80;;;10.73;;
48911;SDS011;34722;52.108;5.044;2023-06-24T21:18:13;14.80;;;9.32;;
48911;SDS011;34722;52.108;5.044;2023-06-24T21:20:39;12.05;;;8.75;;
48911;SDS011;34722;52.108;5.044;2023-06-24T21:23:04;16.15;;;10.18;;
48911;SDS011;34722;52.108;5.044;2023-06-24T21:25:36;20.08;;;10.75;;
48911;SDS011;34722;52.108;5.044;2023-06-24T21:28:02;11.85;;;9.40;;
48911;SDS011;34722;52.108;5.044;2023-06-24T21:30:28;12.60;;;9.88;;
48911;SDS011;34722;52.108;5.044;2023-06-24T21:32:54;10.98;;;9.27;;
48911;SDS011;34722;52.108;5.044;2023-06-24T21:35:20;11.48;;;9.18;;
48911;SDS011;34722;52.108;5.044;2023-06-24T21:37:46;11.10;;;8.25;;
48911;SDS011;34722;52.108;5.044;2023-06-24T21:40:15;13.27;;;9.02;;
48911;SDS011;34722;52.108;5.044;2023-06-24T21:42:40;14.35;;;9.27;;
48911;SDS011;34722;52.108;5.044;2023-06-24T21:45:06;11.98;;;8.48;;
48911;SDS011;34722;52.108;5.044;2023-06-24T21:47:32;16.30;;;9.43;;
48911;SDS011;34722;52.108;5.044;2023-06-24T21:50:01;11.57;;;7.70;;
48911;SDS011;34722;52.108;5.044;2023-06-24T21:52:48;10.65;;;7.30;;
48911;SDS011;34722;52.108;5.044;2023-06-24T21:55:24;9.32;;;7.13;;
48911;SDS011;34722;52.108;5.044;2023-06-24T21:57:50;11.10;;;7.80;;
48911;SDS011;34722;52.108;5.044;2023-06-24T22:00:16;12.13;;;8.02;;
48911;SDS011;34722;52.108;5.044;2023-06-24T22:02:50;10.68;;;7.53;;
48911;SDS011;34722;52.108;5.044;2023-06-24T22:05:17;10.95;;;7.00;;
48911;SDS011;34722;52.108;5.044;2023-06-24T22:07:49;10.68;;;7.70;;
48911;SDS011;34722;52.108;5.044;2023-06-24T22:10:15;11.18;;;7.97;;
48911;SDS011;34722;52.108;5.044;2023-06-24T22:12:53;10.68;;;8.00;;
48911;SDS011;34722;52.108;5.044;2023-06-24T22:15:22;9.82;;;7.18;;
48911;SDS011;34722;52.108;5.044;2023-06-24T22:17:48;9.82;;;7.72;;
48911;SDS011;34722;52.108;5.044;2023-06-24T22:20:14;10.88;;;8.02;;
48911;SDS011;34722;52.108;5.044;2023-06-24T22:22:40;10.63;;;7.28;;
48911;SDS011;34722;52.108;5.044;2023-06-24T22:25:26;11.13;;;7.82;;
48911;SDS011;34722;52.108;5.044;2023-06-24T22:27:52;12.88;;;9.25;;
48911;SDS011;34722;52.108;5.044;2023-06-24T22:30:18;8.30;;;7.30;;
48911;SDS011;34722;52.108;5.044;2023-06-24T22:32:44;13.30;;;8.30;;
48911;SDS011;34722;52.108;5.044;2023-06-24T22:35:13;9.90;;;7.10;;
48911;SDS011;34722;52.108;5.044;2023-06-24T22:37:39;10.93;;;7.50;;
48911;SDS011;34722;52.108;5.044;2023-06-24T22:40:06;9.98;;;7.68;;
48911;SDS011;34722;52.108;5.044;2023-06-24T22:42:34;9.95;;;7.90;;
48911;SDS011;34722;52.108;5.044;2023-06-24T22:45:00;11.32;;;7.50;;
48911;SDS011;34722;52.108;5.044;2023-06-24T22:47:26;9.48;;;7.40;;
48911;SDS011;34722;52.108;5.044;2023-06-24T22:49:54;11.63;;;8.15;;
48911;SDS011;34722;52.108;5.044;2023-06-24T22:52:20;13.52;;;8.00;;
48911;SDS011;34722;52.108;5.044;2023-06-24T22:54:50;11.70;;;8.90;;
48911;SDS011;34722;52.108;5.044;2023-06-24T22:57:15;15.13;;;8.55;;
48911;SDS011;34722;52.108;5.044;2023-06-24T22:59:41;11.02;;;7.72;;
48911;SDS011;34722;52.108;5.044;2023-06-24T23:02:07;12.73;;;8.07;;
48911;SDS011;34722;52.108;5.044;2023-06-24T23:04:36;9.95;;;7.95;;
48911;SDS011;34722;52.108;5.044;2023-06-24T23:07:02;14.13;;;8.43;;
48911;SDS011;34722;52.108;5.044;2023-06-24T23:09:28;13.18;;;7.70;;
48911;SDS011;34722;52.108;5.044;2023-06-24T23:11:54;9.70;;;7.63;;
48911;SDS011;34722;52.108;5.044;2023-06-24T23:14:21;10.32;;;7.65;;
48911;SDS011;34722;52.108;5.044;2023-06-24T23:16:48;15.45;;;8.85;;
48911;SDS011;34722;52.108;5.044;2023-06-24T23:19:15;16.98;;;9.38;;
48911;SDS011;34722;52.108;5.044;2023-06-24T23:21:41;11.73;;;8.88;;
48911;SDS011;34722;52.108;5.044;2023-06-24T23:24:09;14.65;;;9.13;;
48911;SDS011;34722;52.108;5.044;2023-06-24T23:26:38;11.38;;;8.15;;
48911;SDS011;34722;52.108;5.044;2023-06-24T23:29:07;15.13;;;8.73;;
48911;SDS011;34722;52.108;5.044;2023-06-24T23:31:37;13.05;;;8.55;;
48911;SDS011;34722;52.108;5.044;2023-06-24T23:34:09;18.33;;;10.80;;
48911;SDS011;34722;52.108;5.044;2023-06-24T23:36:35;19.25;;;8.77;;
48911;SDS011;34722;52.108;5.044;2023-06-24T23:39:04;10.63;;;7.97;;
48911;SDS011;34722;52.108;5.044;2023-06-24T23:41:32;12.55;;;9.07;;
48911;SDS011;34722;52.108;5.044;2023-06-24T23:43:58;12.88;;;8.77;;
48911;SDS011;34722;52.108;5.044;2023-06-24T23:46:26;12.85;;;8.80;;
48911;SDS011;34722;52.108;5.044;2023-06-24T23:48:52;11.30;;;8.38;;
48911;SDS011;34722;52.108;5.044;2023-06-24T23:51:19;14.88;;;9.65;;
48911;SDS011;34722;52.108;5.044;2023-06-24T23:53:45;14.30;;;10.00;;
48911;SDS011;34722;52.108;5.044;2023-06-24T23:56:11;14.48;;;9.35;;
48911;SDS011;34722;52.108;5.044;2023-06-24T23:58:36;16.05;;;9.95;;
